createdAt,value
2019-03-13T00:01:29.067Z,5.97
2019-03-13T00:03:57.411Z,6.87
2019-03-13T00:06:25.709Z,5.93
2019-03-13T00:08:53.951Z,6.20
2019-03-13T00:11:22.185Z,8.07
2019-03-13T00:13:50.509Z,4.20
2019-03-13T00:16:18.807Z,4.37
2019-03-13T00:18:47.024Z,7.17
2019-03-13T00:21:15.344Z,7.60
2019-03-13T00:23:43.576Z,5.60
2019-03-13T00:26:11.820Z,7.10
2019-03-13T00:28:40.032Z,5.33
2019-03-13T00:31:08.447Z,6.30
2019-03-13T00:33:36.676Z,7.57
2019-03-13T00:36:05.088Z,7.27
2019-03-13T00:38:33.396Z,5.43
2019-03-13T00:41:01.711Z,7.10
2019-03-13T00:43:29.932Z,5.57
2019-03-13T00:45:58.260Z,7.13
2019-03-13T00:48:26.512Z,6.13
2019-03-13T00:50:54.730Z,7.03
2019-03-13T00:53:22.956Z,5.03
2019-03-13T00:55:51.268Z,5.37
2019-03-13T00:58:19.492Z,5.07
2019-03-13T01:00:49.460Z,7.50
2019-03-13T01:03:34.407Z,3.53
2019-03-13T01:06:10.316Z,4.47
2019-03-13T01:08:38.616Z,2.20
2019-03-13T01:11:06.872Z,2.30
2019-03-13T01:13:35.220Z,3.10
2019-03-13T01:16:03.584Z,4.43
2019-03-13T01:18:31.772Z,3.10
2019-03-13T01:21:00.066Z,2.33
2019-03-13T01:23:28.328Z,1.03
2019-03-13T01:25:56.535Z,1.57
2019-03-13T01:28:24.852Z,1.37
2019-03-13T01:31:11.049Z,1.47
2019-03-13T01:33:39.445Z,1.33
2019-03-13T01:36:07.825Z,1.40
2019-03-13T01:38:36.177Z,1.30
2019-03-13T01:41:04.477Z,0.73
2019-03-13T01:43:32.740Z,2.47
2019-03-13T01:46:01.044Z,1.53
2019-03-13T01:48:29.325Z,1.13
2019-03-13T01:50:57.654Z,1.30
2019-03-13T01:53:25.892Z,2.77
2019-03-13T01:55:54.142Z,1.50
2019-03-13T01:58:22.363Z,1.63
2019-03-13T02:00:50.629Z,1.53
2019-03-13T02:03:18.844Z,1.90
2019-03-13T02:05:47.168Z,1.73
2019-03-13T02:08:15.458Z,3.17
2019-03-13T02:10:43.842Z,1.67
2019-03-13T02:13:12.080Z,2.33
2019-03-13T02:15:43.380Z,2.97
2019-03-13T02:18:11.591Z,2.23
2019-03-13T02:20:39.910Z,2.37
2019-03-13T02:23:08.210Z,3.70
2019-03-13T02:25:36.476Z,1.50
2019-03-13T02:28:04.683Z,2.50
2019-03-13T02:30:32.977Z,2.37
2019-03-13T02:33:01.236Z,1.97
2019-03-13T02:35:29.542Z,3.17
2019-03-13T02:37:57.790Z,2.37
2019-03-13T02:40:26.086Z,1.93
2019-03-13T02:42:54.344Z,3.67
2019-03-13T02:45:22.646Z,2.60
2019-03-13T02:47:50.973Z,3.80
2019-03-13T02:50:19.273Z,1.10
2019-03-13T02:52:47.590Z,2.23
2019-03-13T02:55:15.888Z,2.50
2019-03-13T02:57:44.214Z,4.00
2019-03-13T03:00:15.650Z,2.07
2019-03-13T03:02:48.119Z,2.00
2019-03-13T03:05:16.414Z,4.43
2019-03-13T03:07:44.670Z,1.40
2019-03-13T03:10:15.055Z,2.43
2019-03-13T03:12:43.491Z,1.93
2019-03-13T03:15:13.348Z,3.77
2019-03-13T03:17:41.675Z,1.70
2019-03-13T03:20:14.304Z,1.13
2019-03-13T03:22:42.673Z,1.50
2019-03-13T03:25:12.444Z,1.57
2019-03-13T03:27:40.704Z,1.17
2019-03-13T03:30:10.503Z,1.87
2019-03-13T03:32:38.849Z,2.03
2019-03-13T03:35:07.167Z,2.40
2019-03-13T03:37:35.359Z,1.40
2019-03-13T03:40:05.281Z,4.00
2019-03-13T03:42:33.655Z,1.53
2019-03-13T03:45:02.064Z,3.90
2019-03-13T03:47:30.296Z,2.07
2019-03-13T03:49:58.631Z,2.73
2019-03-13T03:52:26.846Z,4.27
2019-03-13T03:54:55.072Z,2.80
2019-03-13T03:57:23.500Z,3.83
2019-03-13T03:59:51.793Z,3.27
2019-03-13T04:02:20.122Z,2.30
2019-03-13T04:04:48.425Z,2.47
2019-03-13T04:07:16.742Z,4.50
2019-03-13T04:09:44.969Z,2.17
2019-03-13T04:12:13.245Z,3.17
2019-03-13T04:14:41.459Z,3.50
2019-03-13T04:17:09.677Z,1.30
2019-03-13T04:19:37.978Z,1.27
2019-03-13T04:22:06.216Z,2.73
2019-03-13T04:24:34.538Z,2.67
2019-03-13T04:27:02.836Z,3.60
2019-03-13T04:29:31.084Z,4.43
2019-03-13T04:31:59.387Z,3.23
2019-03-13T04:34:27.709Z,1.93
2019-03-13T04:36:55.946Z,2.03
2019-03-13T04:39:24.218Z,2.80
2019-03-13T04:41:55.164Z,1.83
2019-03-13T04:44:23.422Z,1.53
2019-03-13T04:46:51.652Z,3.67
2019-03-13T04:49:19.913Z,2.27
2019-03-13T04:51:48.201Z,1.20
2019-03-13T04:54:16.465Z,2.30
2019-03-13T04:56:44.684Z,3.30
2019-03-13T04:59:12.916Z,3.33
2019-03-13T05:01:41.166Z,2.47
2019-03-13T05:04:09.385Z,2.57
2019-03-13T05:06:37.645Z,6.37
2019-03-13T05:09:05.931Z,5.37
2019-03-13T05:11:34.255Z,5.97
2019-03-13T05:14:02.542Z,2.20
2019-03-13T05:16:30.860Z,6.00
2019-03-13T05:18:59.072Z,14.00
2019-03-13T05:21:27.331Z,8.83
2019-03-13T05:23:55.556Z,13.47
2019-03-13T05:26:23.820Z,10.00
2019-03-13T05:28:52.032Z,5.13
2019-03-13T05:31:20.358Z,4.03
2019-03-13T05:33:49.178Z,5.33
2019-03-13T05:36:17.402Z,5.83
2019-03-13T05:38:45.657Z,4.17
2019-03-13T05:41:13.960Z,3.67
2019-03-13T05:43:42.208Z,4.07
2019-03-13T05:46:10.428Z,5.77
2019-03-13T05:48:38.677Z,4.03
2019-03-13T05:51:06.903Z,6.33
2019-03-13T05:53:35.148Z,4.57
2019-03-13T05:56:03.380Z,6.17
2019-03-13T05:58:31.631Z,5.87
2019-03-13T06:00:59.850Z,7.17
2019-03-13T06:03:28.071Z,3.37
2019-03-13T06:05:56.321Z,5.93
2019-03-13T06:08:24.657Z,4.83
2019-03-13T06:10:52.893Z,4.60
2019-03-13T06:13:21.183Z,5.97
2019-03-13T06:15:49.509Z,7.23
2019-03-13T06:18:17.725Z,7.47
2019-03-13T06:20:46.048Z,5.70
2019-03-13T06:23:14.271Z,5.80
2019-03-13T06:25:42.602Z,4.10
2019-03-13T06:28:10.822Z,5.87
2019-03-13T06:30:39.124Z,6.37
2019-03-13T06:33:07.349Z,7.40
2019-03-13T06:35:35.672Z,7.03
2019-03-13T06:38:03.959Z,6.50
2019-03-13T06:40:32.259Z,5.87
2019-03-13T06:43:00.508Z,5.90
2019-03-13T06:45:28.880Z,5.10
2019-03-13T06:47:57.206Z,5.43
2019-03-13T06:50:25.806Z,8.30
2019-03-13T06:52:54.133Z,5.60
2019-03-13T06:55:22.434Z,6.40
2019-03-13T06:57:50.685Z,5.27
2019-03-13T07:00:29.516Z,7.80
2019-03-13T07:03:08.217Z,5.03
2019-03-13T07:05:40.861Z,6.83
2019-03-13T07:08:10.826Z,7.00
2019-03-13T07:10:49.769Z,8.03
2019-03-13T07:13:36.329Z,5.40
2019-03-13T07:16:06.892Z,7.80
2019-03-13T07:18:36.870Z,7.47
2019-03-13T07:21:23.734Z,6.80
2019-03-13T07:23:59.760Z,8.80
2019-03-13T07:26:32.176Z,4.60
2019-03-13T07:29:11.493Z,8.90
2019-03-13T07:31:36.460Z,5.63
2019-03-13T07:34:12.665Z,10.27
2019-03-13T07:36:58.910Z,7.03
2019-03-13T07:39:46.833Z,5.30
2019-03-13T07:42:19.492Z,7.33
2019-03-13T07:44:55.610Z,4.37
2019-03-13T07:47:32.013Z,8.13
2019-03-13T07:50:04.769Z,8.90
2019-03-13T07:52:49.750Z,5.97
2019-03-13T07:55:19.746Z,6.17
2019-03-13T07:57:52.740Z,7.33
2019-03-13T08:00:31.955Z,6.90
2019-03-13T08:03:11.330Z,6.10
2019-03-13T08:05:42.457Z,6.23
2019-03-13T08:08:22.390Z,8.83
2019-03-13T08:11:03.453Z,10.63
2019-03-13T08:13:33.378Z,7.57
2019-03-13T08:16:19.826Z,5.13
2019-03-13T08:19:04.710Z,5.73
2019-03-13T08:21:46.289Z,10.53
2019-03-13T08:24:31.273Z,7.57
2019-03-13T08:27:01.251Z,8.37
2019-03-13T08:29:31.193Z,6.73
2019-03-13T08:32:07.109Z,5.87
2019-03-13T08:34:39.802Z,7.63
2019-03-13T08:37:18.645Z,6.67
2019-03-13T08:39:57.503Z,8.97
2019-03-13T08:42:33.226Z,7.07
2019-03-13T08:45:03.090Z,7.37
2019-03-13T08:47:49.162Z,8.43
2019-03-13T08:50:24.655Z,5.93
2019-03-13T08:53:03.289Z,10.13
2019-03-13T08:55:33.159Z,6.00
2019-03-13T08:58:03.017Z,8.43
2019-03-13T09:00:39.071Z,6.13
2019-03-13T09:03:08.992Z,6.00
2019-03-13T09:05:57.046Z,10.43
2019-03-13T09:08:43.474Z,6.77
2019-03-13T09:11:19.414Z,5.80
2019-03-13T09:14:05.913Z,7.43
2019-03-13T09:16:41.540Z,6.27
2019-03-13T09:19:29.666Z,5.70
2019-03-13T09:21:59.537Z,9.10
2019-03-13T09:24:47.318Z,3.87
2019-03-13T09:27:19.744Z,7.80
2019-03-13T09:29:49.645Z,5.23
2019-03-13T09:32:22.698Z,9.63
2019-03-13T09:34:58.561Z,7.83
2019-03-13T09:37:31.545Z,7.67
2019-03-13T09:40:01.563Z,7.87
2019-03-13T09:45:29.101Z,5.47
2019-03-13T09:50:50.821Z,6.37
2019-03-13T09:53:20.690Z,6.43
2019-03-13T09:56:05.804Z,9.60
2019-03-13T09:58:41.890Z,6.30
2019-03-13T10:01:11.861Z,7.90
2019-03-13T10:03:53.566Z,7.17
2019-03-13T10:06:23.529Z,7.10
2019-03-13T10:08:53.478Z,4.13
2019-03-13T10:11:26.224Z,5.70
2019-03-13T10:13:58.978Z,7.63
2019-03-13T10:16:34.594Z,7.27
2019-03-13T10:19:07.319Z,5.60
2019-03-13T10:21:40.010Z,5.47
2019-03-13T10:24:13.097Z,4.37
2019-03-13T10:26:45.707Z,9.67
2019-03-13T10:29:15.593Z,11.43
2019-03-13T10:31:46.838Z,8.13
2019-03-13T10:34:22.354Z,8.67
2019-03-13T10:37:01.527Z,7.63
2019-03-13T10:39:34.714Z,7.60
2019-03-13T10:42:16.617Z,7.23
2019-03-13T10:44:49.522Z,8.70
2019-03-13T10:47:19.472Z,8.10
2019-03-13T10:49:52.159Z,5.67
2019-03-13T10:52:22.027Z,6.33
2019-03-13T10:55:04.034Z,5.77
2019-03-13T10:57:34.039Z,7.93
2019-03-13T11:00:15.768Z,5.43
2019-03-13T11:02:48.465Z,5.40
2019-03-13T11:05:21.539Z,9.53
2019-03-13T11:07:51.861Z,7.50
2019-03-13T11:10:21.722Z,6.00
2019-03-13T11:13:08.149Z,7.63
2019-03-13T11:15:47.262Z,6.70
2019-03-13T11:18:20.197Z,7.83
2019-03-13T11:20:52.832Z,7.17
2019-03-13T11:23:22.816Z,9.57
2019-03-13T11:26:10.871Z,8.83
2019-03-13T11:28:55.933Z,7.13
2019-03-13T11:31:31.409Z,6.83
2019-03-13T11:34:01.434Z,6.17
2019-03-13T11:36:31.345Z,13.27
2019-03-13T11:39:13.300Z,9.83
2019-03-13T11:41:55.225Z,8.43
2019-03-13T11:44:34.017Z,9.13
2019-03-13T11:47:20.235Z,6.97
2019-03-13T11:50:08.614Z,9.27
2019-03-13T11:52:45.444Z,10.10
2019-03-13T11:55:32.064Z,7.70
2019-03-13T11:58:04.688Z,7.57
2019-03-13T12:00:40.806Z,6.97
2019-03-13T12:03:19.485Z,11.40
2019-03-13T12:06:04.418Z,10.00
2019-03-13T12:08:37.194Z,5.60
2019-03-13T12:11:09.941Z,6.20
2019-03-13T12:13:45.329Z,6.93
2019-03-13T12:16:15.221Z,5.50
2019-03-13T12:18:45.157Z,9.00
2019-03-13T12:21:18.104Z,9.40
2019-03-13T12:23:47.968Z,9.77
2019-03-13T12:26:17.937Z,6.87
2019-03-13T12:28:50.323Z,5.87
2019-03-13T12:31:20.295Z,5.13
2019-03-13T12:33:50.243Z,9.53
2019-03-13T12:36:20.313Z,7.03
2019-03-13T12:38:59.218Z,7.37
2019-03-13T12:41:29.103Z,6.67
2019-03-13T12:43:59.054Z,7.10
2019-03-13T12:46:29.026Z,4.63
2019-03-13T12:49:01.889Z,2.57
2019-03-13T12:51:48.248Z,8.77
2019-03-13T12:54:27.272Z,4.50
2019-03-13T12:56:57.246Z,5.97
2019-03-13T12:59:43.091Z,4.97
2019-03-13T13:02:16.002Z,5.23
2019-03-13T13:04:48.441Z,7.17
2019-03-13T13:07:21.081Z,6.60
2019-03-13T13:10:10.200Z,6.33
2019-03-13T13:12:40.190Z,6.13
2019-03-13T13:15:20.503Z,7.27
2019-03-13T13:17:53.269Z,4.63
2019-03-13T13:20:23.954Z,7.90
2019-03-13T13:25:39.006Z,10.30
2019-03-13T13:28:07.301Z,6.90
2019-03-13T13:30:35.621Z,5.10
2019-03-13T13:33:03.921Z,10.30
2019-03-13T13:35:32.205Z,5.07
2019-03-13T13:38:00.462Z,9.00
2019-03-13T13:40:28.753Z,6.30
2019-03-13T13:42:57.069Z,6.07
2019-03-13T13:45:32.910Z,5.20
2019-03-13T13:47:59.924Z,5.50
2019-03-13T13:50:28.213Z,8.70
2019-03-13T13:52:56.517Z,11.57
2019-03-13T13:55:24.764Z,8.83
2019-03-13T13:57:52.992Z,6.90
2019-03-13T14:00:21.332Z,11.80
2019-03-13T14:02:49.616Z,9.27
2019-03-13T14:05:17.877Z,9.67
2019-03-13T14:07:46.184Z,8.40
2019-03-13T14:10:14.480Z,10.30
2019-03-13T14:12:42.803Z,5.97
2019-03-13T14:15:12.564Z,10.20
2019-03-13T14:17:40.908Z,8.77
2019-03-13T14:20:10.667Z,7.63
2019-03-13T14:22:39.000Z,6.07
2019-03-13T14:25:08.780Z,9.17
2019-03-13T14:27:37.041Z,8.97
2019-03-13T14:30:06.802Z,9.37
2019-03-13T14:32:35.053Z,7.27
2019-03-13T14:35:03.852Z,12.57
2019-03-13T14:37:32.072Z,9.93
2019-03-13T14:40:00.396Z,9.87
2019-03-13T14:42:28.729Z,12.87
2019-03-13T14:44:56.995Z,12.07
2019-03-13T14:47:25.235Z,8.77
2019-03-13T14:49:53.494Z,8.07
2019-03-13T14:52:21.789Z,9.57
2019-03-13T14:54:50.044Z,7.33
2019-03-13T14:57:18.260Z,12.43
2019-03-13T14:59:46.601Z,7.50
2019-03-13T15:02:14.880Z,9.03
2019-03-13T15:04:43.202Z,9.67
2019-03-13T15:07:11.499Z,7.93
2019-03-13T15:09:39.719Z,7.93
2019-03-13T15:12:08.058Z,8.03
2019-03-13T15:14:36.277Z,6.60
2019-03-13T15:17:05.157Z,8.33
2019-03-13T15:19:33.630Z,8.33
2019-03-13T15:22:01.994Z,10.23
2019-03-13T15:24:30.333Z,8.47
2019-03-13T15:27:11.998Z,14.00
2019-03-13T15:29:48.694Z,8.93
2019-03-13T15:32:34.561Z,6.07
2019-03-13T15:35:04.466Z,10.37
2019-03-13T15:37:32.772Z,8.27
2019-03-13T15:40:01.114Z,6.53
2019-03-13T15:42:29.420Z,5.77
2019-03-13T15:44:57.746Z,9.10
2019-03-13T15:47:26.120Z,12.23
2019-03-13T15:49:54.382Z,7.07
2019-03-13T15:52:22.646Z,9.70
2019-03-13T15:54:50.891Z,10.70
2019-03-13T15:57:19.214Z,8.37
2019-03-13T15:59:47.453Z,11.40
2019-03-13T16:02:15.749Z,7.97
2019-03-13T16:04:44.101Z,10.47
2019-03-13T16:07:12.330Z,14.30
2019-03-13T16:09:40.613Z,12.80
2019-03-13T16:12:08.907Z,10.17
2019-03-13T16:14:37.165Z,7.73
2019-03-13T16:17:05.569Z,10.13
2019-03-13T16:19:33.875Z,12.07
2019-03-13T16:22:03.172Z,9.13
2019-03-13T16:24:31.467Z,8.67
2019-03-13T16:26:59.801Z,8.70
2019-03-13T16:29:30.805Z,10.70
2019-03-13T16:31:57.932Z,13.23
2019-03-13T16:34:26.184Z,9.57
2019-03-13T16:36:54.418Z,9.87
2019-03-13T16:39:22.667Z,11.23
2019-03-13T16:41:50.886Z,12.97
2019-03-13T16:44:19.136Z,15.73
2019-03-13T16:46:47.369Z,8.77
2019-03-13T16:49:15.701Z,9.60
2019-03-13T16:51:43.936Z,11.97
2019-03-13T16:54:12.271Z,10.70
2019-03-13T16:56:40.489Z,13.87
2019-03-13T16:59:08.825Z,12.53
2019-03-13T17:01:37.052Z,13.90
2019-03-13T17:04:05.346Z,14.27
2019-03-13T17:06:33.673Z,14.00
2019-03-13T17:09:01.899Z,10.40
2019-03-13T17:11:30.160Z,17.03
2019-03-13T17:14:00.758Z,8.13
2019-03-13T17:16:29.117Z,11.43
2019-03-13T17:18:57.413Z,11.63
2019-03-13T17:21:53.904Z,16.40
2019-03-13T17:24:22.364Z,10.97
2019-03-13T17:26:50.620Z,6.97
2019-03-13T17:29:18.846Z,10.73
2019-03-13T17:31:47.151Z,14.40
2019-03-13T17:34:15.420Z,16.17
2019-03-13T17:36:43.906Z,12.07
2019-03-13T17:39:12.717Z,15.87
2019-03-13T17:41:41.129Z,13.00
2019-03-13T17:44:10.172Z,16.60
2019-03-13T17:46:38.466Z,13.43
2019-03-13T17:49:06.765Z,11.30
2019-03-13T17:51:35.486Z,13.13
2019-03-13T17:54:04.414Z,14.90
2019-03-13T17:56:32.635Z,15.00
2019-03-13T17:59:01.183Z,13.70
2019-03-13T18:01:29.368Z,12.77
2019-03-13T18:03:58.380Z,8.13
2019-03-13T18:06:26.966Z,12.53
2019-03-13T18:08:55.358Z,12.13
2019-03-13T18:11:24.028Z,17.73
2019-03-13T18:13:52.481Z,13.90
2019-03-13T18:16:21.447Z,10.83
2019-03-13T18:18:50.024Z,10.23
2019-03-13T18:21:18.347Z,13.83
2019-03-13T18:23:46.580Z,14.93
2019-03-13T18:26:15.189Z,14.80
2019-03-13T18:28:43.372Z,12.30
2019-03-13T18:31:12.477Z,12.20
2019-03-13T18:33:42.579Z,10.40
2019-03-13T18:36:13.828Z,12.97
2019-03-13T18:38:41.001Z,14.73
2019-03-13T18:41:09.546Z,14.80
2019-03-13T18:43:38.292Z,16.67
2019-03-13T18:46:07.059Z,14.27
2019-03-13T18:48:35.358Z,15.90
2019-03-13T18:51:03.775Z,14.37
2019-03-13T18:53:32.078Z,13.20
2019-03-13T18:56:00.403Z,12.83
2019-03-13T18:58:28.701Z,14.20
2019-03-13T19:00:58.313Z,15.03
2019-03-13T19:03:26.819Z,14.17
2019-03-13T19:05:55.171Z,13.63
2019-03-13T19:08:26.694Z,13.33
2019-03-13T19:10:53.449Z,11.57
2019-03-13T19:13:21.704Z,13.73
2019-03-13T19:15:50.024Z,10.03
2019-03-13T19:18:18.257Z,15.50
2019-03-13T19:20:46.545Z,11.67
2019-03-13T19:23:14.803Z,10.73
2019-03-13T19:25:43.074Z,11.03
2019-03-13T19:28:11.314Z,13.30
2019-03-13T19:30:39.649Z,14.97
2019-03-13T19:33:07.948Z,15.23
2019-03-13T19:35:41.669Z,14.77
2019-03-13T19:38:11.188Z,12.37
2019-03-13T19:40:40.263Z,13.33
2019-03-13T19:43:08.788Z,13.53
2019-03-13T19:45:38.699Z,11.33
2019-03-13T19:48:07.060Z,14.27
2019-03-13T19:50:35.332Z,10.63
2019-03-13T19:53:03.803Z,13.50
2019-03-13T19:55:33.032Z,18.07
2019-03-13T19:58:01.344Z,11.50
2019-03-13T20:00:29.931Z,16.87
2019-03-13T20:03:00.670Z,13.00
2019-03-13T20:05:29.227Z,15.10
2019-03-13T20:07:57.467Z,15.73
2019-03-13T20:10:26.662Z,14.30
2019-03-13T20:12:54.934Z,11.73
2019-03-13T20:15:27.381Z,14.43
2019-03-13T20:17:56.392Z,11.83
2019-03-13T20:20:24.929Z,13.63
2019-03-13T20:23:03.157Z,11.17
2019-03-13T20:25:31.626Z,13.87
2019-03-13T20:28:00.082Z,9.53
2019-03-13T20:30:28.628Z,11.07
2019-03-13T20:32:56.960Z,15.50
2019-03-13T20:35:25.542Z,10.07
2019-03-13T20:37:56.900Z,10.30
2019-03-13T20:40:25.875Z,9.83
2019-03-13T20:42:54.345Z,6.93
2019-03-13T20:45:28.928Z,12.03
2019-03-13T20:47:57.797Z,7.87
2019-03-13T20:50:36.017Z,9.57
2019-03-13T20:52:56.352Z,8.00
2019-03-13T20:55:25.136Z,9.03
2019-03-13T20:57:53.601Z,7.03
2019-03-13T21:00:25.692Z,9.10
2019-03-13T21:02:55.500Z,8.90
2019-03-13T21:05:24.918Z,9.47
2019-03-13T21:07:54.205Z,9.20
2019-03-13T21:10:25.224Z,6.50
2019-03-13T21:12:55.765Z,9.77
2019-03-13T21:15:45.381Z,11.00
2019-03-13T21:18:13.710Z,6.80
2019-03-13T21:20:42.551Z,5.90
2019-03-13T21:23:11.626Z,11.50
2019-03-13T21:25:40.208Z,9.67
2019-03-13T21:28:10.418Z,8.60
2019-03-13T21:30:38.825Z,7.20
2019-03-13T21:33:07.671Z,6.30
2019-03-13T21:35:36.144Z,7.57
2019-03-13T21:38:04.370Z,8.00
2019-03-13T21:40:32.764Z,7.33
2019-03-13T21:43:01.076Z,10.43
2019-03-13T21:45:40.359Z,10.57
2019-03-13T21:47:59.451Z,7.03
2019-03-13T21:50:27.825Z,9.80
2019-03-13T21:52:56.559Z,9.37
2019-03-13T21:55:27.264Z,10.00
2019-03-13T21:57:54.994Z,8.00
2019-03-13T22:00:24.213Z,7.10
2019-03-13T22:02:52.675Z,9.83
2019-03-13T22:05:26.125Z,11.80
2019-03-13T22:07:51.065Z,9.20
2019-03-13T22:10:20.267Z,8.07
2019-03-13T22:12:48.588Z,8.57
2019-03-13T22:15:17.839Z,7.90
2019-03-13T22:17:46.160Z,7.70
2019-03-13T22:20:15.652Z,7.47
2019-03-13T22:22:43.960Z,6.13
2019-03-13T22:25:13.249Z,4.83
2019-03-13T22:27:41.662Z,8.47
2019-03-13T22:30:14.367Z,7.07
2019-03-13T22:32:42.736Z,7.37
2019-03-13T22:35:11.405Z,6.67
2019-03-13T22:37:39.724Z,6.60
2019-03-13T22:40:09.728Z,5.37
2019-03-13T22:42:38.245Z,4.77
2019-03-13T22:45:08.439Z,7.27
2019-03-13T22:47:42.469Z,5.73
2019-03-13T22:50:11.616Z,7.20
2019-03-13T22:52:39.946Z,4.73
2019-03-13T22:55:08.845Z,4.97
2019-03-13T22:57:37.212Z,4.90
2019-03-13T23:00:07.698Z,8.13
2019-03-13T23:02:37.572Z,5.80
2019-03-13T23:05:06.646Z,5.67
2019-03-13T23:07:35.243Z,7.47
2019-03-13T23:10:08.559Z,8.80
2019-03-13T23:12:36.699Z,6.20
2019-03-13T23:15:05.576Z,5.90
2019-03-13T23:17:35.190Z,7.60
2019-03-13T23:20:04.737Z,6.87
2019-03-13T23:22:32.948Z,7.20
2019-03-13T23:25:01.434Z,8.63
2019-03-13T23:27:29.837Z,6.20
2019-03-13T23:29:58.132Z,6.37
2019-03-13T23:32:26.503Z,9.67
2019-03-13T23:34:55.218Z,5.90
2019-03-13T23:37:23.533Z,9.67
2019-03-13T23:39:51.837Z,9.20
2019-03-13T23:42:20.883Z,5.67
2019-03-13T23:44:50.011Z,10.17
2019-03-13T23:47:18.273Z,5.53
2019-03-13T23:49:46.492Z,8.97
2019-03-13T23:52:14.753Z,8.57
2019-03-13T23:54:42.985Z,6.10
2019-03-13T23:57:11.313Z,6.70
2019-03-13T23:59:39.684Z,5.53
